Alvord, Texas
Current Conditions -  °F | °C
As of 11:35 PM on Sunday 21 Dec 2014 (Local Time) from KLUD Reporting Station
Overcast Overcast  
Wind Chill: 50°   Ceiling: 900
Heat Index: 50°   Visibility: 10mi
Dew Point: 48°   Wind: 18mph
Humidity: 94%   Direction: 170°S
Pressure: 29.68"   Gusts: 24mph
Location:  33.36°N, 97.69°W
Report Text: KLUD 220535Z AUTO 17016G21KT 10SM OVC009 10/09 A2968 RMK AO2 T01000091
Loading
Personal Weather Stations






























Interactive Weather Map New forecast layout! Learn more

10-Day Weather Forecast

Advertisements
Track Severe Weather on mobile